Archival Weather

NSFA McMurdo Sound

NSFA McMurdo Sound, Antarctica (NZCM)

Report from: Friday, September 23, 2022 9:42 AM UTC
Current time: Sunday, December 4, 2022 10:54 AM UTC

Current weather
Weather history
Weather forecast

Present weatherLight snow
Temperature-22.8°C (-9.0°F)
Wind chill-38.2°C (-36.8°F)
Dew point-26.9°C (-16.4°F)
Winds 23 kts (11.8 m/s, 26.5 mph) East-Northeast (60°)
Wind gusts 28 kts (14.4 m/s, 32.2 mph)
Peak wind 28 kts (14.4 m/s, 32.2 mph) East-Northeast (70°) at 04:39
Visibility3.7 mi. (6 km)
Clouds Ceiling: Overcast 1,500 ft. (457 m)
Altimeter28.64 in.Hg (970 mB)
Precip. events Snow began 8:57 AM
Snow ended 9:15 AM
Snow began 9:42 AM
Relative humidity69 %
Density altitude-3,320 ft. (-1,012 m)
Sea-level pressure107.1 kPa (1071 mB, 31.61 in.Hg)
Remarks Fully automated report
System requires maintenance
Special weather observation
Automated weather observing station with precipitation discriminator
Flight conditions Marginal Visual Meteorological Conditions
Raw dataSPECI NZCM 230942Z AUTO 06023G28KT 6000 -SN OVC015 M23/M27 A2864 RMK AO2 PK WND 07028/0939 WSHFT 0903 SNB0857E0915B0942 SLP705 T12281269 $
An error has occurred. This application may no longer respond until reloaded. Reload 🗙